Time;durP1;ratioP1;P1;durP2;ratioP2;P2;SDS_P1;SDS_P2;PMS_P1;PMS_P2;Temp;Humidity;BMP_temperature;BMP_pressure;BME280_temperature;BME280_humidity;BME280_pressure;Samples;Min_cycle;Max_cycle;Signal;HPM_P1;HPM_P2
2022/09/30 00:02:00;;;;;;;6.55;5.28;;;;;;;5.62;100.00;100623.91;5121032;27;20039;-92
2022/09/30 00:04:25;;;;;;;9.07;5.95;;;;;;;5.60;100.00;100628.66;5120169;27;20034;-91
2022/09/30 00:06:55;;;;;;;6.60;5.77;;;;;;;5.52;100.00;100626.91;5120287;27;20027;-92
2022/09/30 00:09:23;;;;;;;10.40;6.20;;;;;;;5.46;100.00;100627.63;5138113;27;20037;-92
2022/09/30 00:11:55;;;;;;;7.95;5.30;;;;;;;5.42;100.00;100627.19;5102808;27;20531;-91
2022/09/30 00:14:22;;;;;;;9.70;7.05;;;;;;;5.43;100.00;100636.94;5138564;27;20027;-92
2022/09/30 00:16:48;;;;;;;8.95;7.07;;;;;;;5.43;100.00;100644.16;5119814;27;20035;-92
2022/09/30 00:19:14;;;;;;;11.10;7.03;;;;;;;5.41;100.00;100636.28;5119616;27;20035;-92
2022/09/30 00:21:41;;;;;;;12.77;7.55;;;;;;;5.43;100.00;100639.63;5120090;27;20023;-92
2022/09/30 00:24:10;;;;;;;8.07;6.38;;;;;;;5.45;100.00;100636.75;5119624;27;20031;-91
2022/09/30 00:26:39;;;;;;;9.70;6.68;;;;;;;5.43;100.00;100639.63;5102750;27;20046;-91
2022/09/30 00:29:05;;;;;;;10.20;6.82;;;;;;;5.44;100.00;100643.16;5119594;27;20599;-92
2022/09/30 00:31:38;;;;;;;10.35;7.65;;;;;;;5.41;100.00;100640.81;5119605;27;20019;-92
2022/09/30 00:34:14;;;;;;;12.80;7.60;;;;;;;5.39;100.00;100641.03;5119584;27;20118;-92
2022/09/30 00:37:03;;;;;;;11.00;7.03;;;;;;;5.33;100.00;100635.53;5103687;27;20039;-91
2022/09/30 00:39:30;;;;;;;9.25;6.97;;;;;;;5.27;100.00;100640.66;5106682;27;20075;-92
2022/09/30 00:42:00;;;;;;;9.80;6.63;;;;;;;5.24;100.00;100645.53;5119342;27;20023;-91
2022/09/30 00:45:17;;;;;;;10.40;7.13;;;;;;;5.23;100.00;100639.34;5103210;27;20530;-92
2022/09/30 00:48:10;;;;;;;11.13;7.63;;;;;;;5.17;100.00;100633.88;5086060;27;20027;-92
2022/09/30 00:50:54;;;;;;;10.93;7.75;;;;;;;5.21;100.00;100640.53;5086593;27;20031;-92
2022/09/30 00:53:22;;;;;;;13.30;7.00;;;;;;;5.21;100.00;100641.41;5119563;27;20114;-92
2022/09/30 00:55:48;;;;;;;16.10;7.80;;;;;;;5.18;100.00;100641.78;5119117;27;20027;-92
2022/09/30 00:58:21;;;;;;;12.27;8.55;;;;;;;5.16;100.00;100634.91;5119702;27;20031;-92
2022/09/30 01:00:50;;;;;;;12.98;7.97;;;;;;;5.15;100.00;100646.66;5130799;27;20137;-92
2022/09/30 01:03:21;;;;;;;15.48;7.82;;;;;;;5.14;100.00;100644.97;5139585;27;20101;-92
2022/09/30 01:05:47;;;;;;;15.38;7.75;;;;;;;5.07;100.00;100639.53;5139446;27;20023;-92
2022/09/30 01:08:13;;;;;;;13.25;8.02;;;;;;;5.05;100.00;100642.41;5122881;27;20023;-92
2022/09/30 01:10:39;;;;;;;12.90;8.10;;;;;;;5.03;100.00;100635.53;5139964;27;20102;-92
2022/09/30 01:13:05;;;;;;;13.93;8.40;;;;;;;5.01;100.00;100638.41;5139114;27;20060;-92
2022/09/30 01:15:45;;;;;;;14.73;8.90;;;;;;;4.99;100.00;100640.44;5139224;27;20031;-92
2022/09/30 01:18:27;;;;;;;11.10;8.68;;;;;;;4.97;100.00;100639.78;5139878;27;20462;-92
2022/09/30 01:21:29;;;;;;;11.70;8.43;;;;;;;4.96;100.00;100643.50;5139037;27;20031;-92
2022/09/30 01:24:32;;;;;;;14.70;9.52;;;;;;;4.97;100.00;100641.66;5139681;27;20105;-92
2022/09/30 01:27:12;;;;;;;13.95;8.90;;;;;;;4.95;100.00;100643.69;5139180;27;20026;-92
2022/09/30 01:30:02;;;;;;;12.60;8.85;;;;;;;4.94;100.00;100647.41;5138884;27;20054;-92
2022/09/30 01:32:50;;;;;;;11.32;8.27;;;;;;;4.91;100.00;100646.72;5138915;27;20031;-92
2022/09/30 01:35:44;;;;;;;11.50;7.93;;;;;;;4.90;100.00;100639.69;5140130;27;20039;-92
2022/09/30 01:38:35;;;;;;;18.52;10.13;;;;;;;4.88;100.00;100644.41;5139360;27;20030;-92
2022/09/30 01:41:10;;;;;;;14.55;8.70;;;;;;;4.86;100.00;100634.88;5139311;27;20045;-92
2022/09/30 01:43:43;;;;;;;14.05;8.80;;;;;;;4.83;100.00;100649.50;5139133;27;20046;-92
2022/09/30 01:46:20;;;;;;;13.85;9.73;;;;;;;4.82;100.00;100655.06;5139084;27;20382;-92
2022/09/30 01:49:09;;;;;;;16.33;9.55;;;;;;;4.80;100.00;100651.72;5139677;27;20348;-92
2022/09/30 01:51:57;;;;;;;11.63;8.45;;;;;;;4.76;100.00;100648.56;5138344;27;20034;-91
2022/09/30 01:54:46;;;;;;;15.27;10.30;;;;;;;4.79;100.00;100645.50;5138572;27;20025;-91
2022/09/30 01:57:27;;;;;;;14.10;9.70;;;;;;;4.76;100.00;100632.44;5138666;27;20022;-92
2022/09/30 02:00:08;;;;;;;19.27;12.43;;;;;;;4.81;100.00;100642.63;5138216;27;20470;-92
2022/09/30 02:02:47;;;;;;;22.17;12.75;;;;;;;4.80;100.00;100639.13;5138187;27;20022;-91
2022/09/30 02:05:23;;;;;;;22.80;13.23;;;;;;;4.85;100.00;100649.31;5138655;27;20039;-91
2022/09/30 02:07:55;;;;;;;17.85;12.13;;;;;;;4.83;100.00;100640.63;5138232;27;20496;-92
2022/09/30 02:10:28;;;;;;;19.48;12.40;;;;;;;4.84;100.00;100658.41;5139157;27;20087;-92
2022/09/30 02:13:04;;;;;;;15.52;10.82;;;;;;;4.75;100.00;100649.56;5138800;27;20381;-92
2022/09/30 02:15:52;;;;;;;14.35;10.27;;;;;;;4.71;100.00;100641.06;5137993;27;20025;-92
2022/09/30 02:18:44;;;;;;;17.20;10.93;;;;;;;4.70;100.00;100647.44;5137978;27;20087;-92
2022/09/30 02:21:14;;;;;;;17.10;9.75;;;;;;;4.70;100.00;100655.50;5126754;27;20047;-92
2022/09/30 02:23:42;;;;;;;17.20;9.18;;;;;;;4.70;100.00;100650.13;5138097;27;20095;-92
2022/09/30 02:26:20;;;;;;;13.90;9.52;;;;;;;4.67;100.00;100646.97;5138283;27;20026;-92
2022/09/30 02:28:58;;;;;;;14.27;9.95;;;;;;;4.71;100.00;100659.00;5138449;27;20454;-91
2022/09/30 02:31:26;;;;;;;17.88;9.90;;;;;;;4.68;100.00;100662.06;5138021;27;20114;-93
2022/09/30 02:34:14;;;;;;;15.07;10.15;;;;;;;4.71;100.00;100661.69;5137841;27;20049;-92
2022/09/30 02:36:49;;;;;;;18.55;10.52;;;;;;;4.69;100.00;100656.50;5138139;27;20525;-92
2022/09/30 02:39:25;;;;;;;17.80;11.70;;;;;;;4.62;100.00;100647.53;5137981;27;20107;-92
2022/09/30 02:42:05;;;;;;;19.58;12.25;;;;;;;4.63;100.00;100651.84;5138212;27;20027;-92
2022/09/30 02:44:31;;;;;;;20.00;12.32;;;;;;;4.62;100.00;100644.84;5138105;27;20054;-92
2022/09/30 02:47:19;;;;;;;25.03;13.40;;;;;;;4.60;100.00;100648.72;5137628;27;20095;-92
2022/09/30 02:50:02;;;;;;;21.02;13.60;;;;;;;4.63;100.00;100653.72;5137361;27;20038;-92
2022/09/30 02:52:51;;;;;;;17.20;12.45;;;;;;;4.59;100.00;100647.84;5137443;27;20077;-91
2022/09/30 02:55:23;;;;;;;17.20;11.48;;;;;;;4.55;100.00;100649.25;5138530;27;20095;-91
2022/09/30 02:58:12;;;;;;;18.92;12.70;;;;;;;4.54;100.00;100658.31;5138063;27;20038;-92
2022/09/30 03:00:41;;;;;;;17.00;11.80;;;;;;;4.50;100.00;100643.56;5137016;27;20042;-92
2022/09/30 03:03:18;;;;;;;17.38;12.13;;;;;;;4.50;100.00;100654.31;5137407;27;20118;-91
2022/09/30 03:05:56;;;;;;;16.33;11.95;;;;;;;4.49;100.00;100653.50;5137292;27;20058;-92
2022/09/30 03:08:25;;;;;;;20.88;13.50;;;;;;;4.47;100.00;100650.13;5137716;27;20454;-92
2022/09/30 03:10:58;;;;;;;19.65;13.25;;;;;;;4.51;100.00;100656.00;5137311;27;20390;-92
2022/09/30 03:13:39;;;;;;;21.50;14.27;;;;;;;4.47;100.00;100655.50;5137074;27;20117;-91
2022/09/30 03:16:27;;;;;;;18.27;11.32;;;;;;;4.46;100.00;100664.59;5137534;27;20046;-91
2022/09/30 03:19:14;;;;;;;17.15;11.52;;;;;;;4.48;100.00;100659.88;5137152;27;20518;-92
2022/09/30 03:21:45;;;;;;;17.98;12.65;;;;;;;4.42;100.00;100655.22;5142120;27;20042;-91
2022/09/30 03:24:45;;;;;;;20.95;12.73;;;;;;;4.41;100.00;100663.47;5141770;27;20027;-91
2022/09/30 03:27:16;;;;;;;17.35;11.95;;;;;;;4.39;100.00;100672.53;5141979;27;20087;-91
2022/09/30 03:30:11;;;;;;;20.65;11.98;;;;;;;4.33;100.00;100667.06;5141712;27;20515;-92
2022/09/30 03:33:03;;;;;;;18.95;12.40;;;;;;;4.33;100.00;100670.56;5160105;27;20030;-92
2022/09/30 03:35:45;;;;;;;23.85;13.90;;;;;;;4.34;100.00;100655.28;5141607;27;20039;-92
2022/09/30 03:38:46;;;;;;;20.45;13.90;;;;;;;4.39;100.00;100669.03;5141449;27;20031;-92
2022/09/30 03:41:39;;;;;;;22.55;12.68;;;;;;;4.37;100.00;100666.53;5142178;27;20027;-92
2022/09/30 03:44:21;;;;;;;20.98;12.75;;;;;;;4.31;100.00;100661.88;5141644;27;20514;-92
2022/09/30 03:47:24;;;;;;;19.63;12.93;;;;;;;4.28;100.00;100667.59;5141666;27;20114;-92
2022/09/30 03:49:54;;;;;;;20.80;13.43;;;;;;;4.30;100.00;100679.00;5058722;28;20090;-92
2022/09/30 03:52:25;;;;;;;18.55;12.10;;;;;;;4.29;100.00;100679.16;5127605;27;20501;-92
2022/09/30 03:54:59;;;;;;;23.35;12.85;;;;;;;4.24;100.00;100685.06;5160050;27;20506;-91
2022/09/30 03:57:29;;;;;;;20.95;13.60;;;;;;;4.23;100.00;100686.06;5141220;27;20026;-92
2022/09/30 03:59:58;;;;;;;22.48;13.57;;;;;;;4.24;100.00;100689.59;5140802;27;20121;-92
2022/09/30 04:02:45;;;;;;;23.00;14.70;;;;;;;4.24;100.00;100686.91;5141141;27;20050;-92
2022/09/30 04:05:11;;;;;;;22.77;13.90;;;;;;;4.29;100.00;100700.66;5140691;27;20050;-92
2022/09/30 04:07:37;;;;;;;25.27;15.25;;;;;;;4.30;100.00;100694.28;5140892;27;20026;-92
2022/09/30 04:10:05;;;;;;;24.02;15.15;;;;;;;4.30;100.00;100702.34;5140877;27;20114;-92
2022/09/30 04:12:41;;;;;;;23.70;15.77;;;;;;;4.25;100.00;100707.38;5140684;27;20035;-92
2022/09/30 04:15:10;;;;;;;25.20;15.80;;;;;;;4.22;100.00;100708.56;5124145;27;20027;-92
2022/09/30 04:17:44;;;;;;;26.42;15.65;;;;;;;4.26;100.00;100722.50;5140947;27;20030;-92
2022/09/30 04:20:11;;;;;;;25.55;14.48;;;;;;;4.26;100.00;100727.88;5141397;27;20046;-92
2022/09/30 04:22:45;;;;;;;25.48;15.60;;;;;;;4.23;100.00;100731.75;5140895;27;20034;-92
2022/09/30 04:25:18;;;;;;;24.02;15.93;;;;;;;4.20;100.00;100727.53;5140705;27;20027;-92
2022/09/30 04:27:47;;;;;;;27.90;15.70;;;;;;;4.20;100.00;100742.84;5124149;27;20064;-91
2022/09/30 04:30:12;;;;;;;25.23;15.95;;;;;;;4.16;100.00;100747.75;5140025;27;20141;-91
2022/09/30 04:32:42;;;;;;;36.83;15.50;;;;;;;4.13;100.00;100739.19;5124264;27;20421;-92
2022/09/30 04:35:20;;;;;;;24.63;15.10;;;;;;;4.09;100.00;100745.91;5140749;27;20035;-92
2022/09/30 04:37:52;;;;;;;22.88;14.65;;;;;;;4.06;100.00;100744.44;5123349;27;20079;-92
2022/09/30 04:40:17;;;;;;;23.15;14.25;;;;;;;4.01;100.00;100739.56;5140058;27;20035;-92
2022/09/30 04:42:46;;;;;;;20.77;14.10;;;;;;;3.97;100.00;100740.94;5140384;27;20427;-92
2022/09/30 04:45:20;;;;;;;22.55;14.60;;;;;;;3.96;100.00;100738.44;5140898;27;20160;-92
2022/09/30 04:47:51;;;;;;;25.25;14.40;;;;;;;3.96;100.00;100744.63;5140670;27;20054;-91
2022/09/30 04:50:19;;;;;;;21.98;13.98;;;;;;;3.94;100.00;100745.81;5140207;27;20022;-91
2022/09/30 04:52:44;;;;;;;22.57;14.30;;;;;;;3.94;100.00;100746.66;5140684;27;20034;-91
2022/09/30 04:55:10;;;;;;;22.65;14.27;;;;;;;3.93;100.00;100753.03;5140110;27;20034;-92
2022/09/30 04:57:38;;;;;;;24.43;15.47;;;;;;;3.92;100.00;100756.72;5139868;27;20022;-92
2022/09/30 05:00:07;;;;;;;26.02;14.93;;;;;;;3.93;100.00;100752.22;5140296;27;20454;-92
2022/09/30 05:02:33;;;;;;;24.67;15.38;;;;;;;3.91;100.00;100759.56;5140071;27;20074;-91
2022/09/30 05:04:59;;;;;;;24.33;15.00;;;;;;;3.91;100.00;100762.25;5139734;27;20022;-92
2022/09/30 05:07:31;;;;;;;26.08;16.30;;;;;;;3.91;100.00;100760.41;5139821;27;20019;-92
2022/09/30 05:09:59;;;;;;;25.75;15.60;;;;;;;3.92;100.00;100767.47;5140343;27;20121;-91
2022/09/30 05:12:25;;;;;;;26.67;15.32;;;;;;;3.91;100.00;100773.81;5158741;27;20030;-92
2022/09/30 05:14:51;;;;;;;24.35;14.65;;;;;;;3.89;100.00;100761.63;5139239;27;20030;-92
2022/09/30 05:17:29;;;;;;;26.33;16.10;;;;;;;3.90;100.00;100772.19;5140738;27;20033;-92
2022/09/30 05:19:55;;;;;;;27.80;15.53;;;;;;;3.90;100.00;100768.63;5139179;27;20058;-93
2022/09/30 05:22:24;;;;;;;24.58;15.60;;;;;;;3.89;100.00;100772.34;5139039;27;20124;-92
2022/09/30 05:24:53;;;;;;;25.75;15.23;;;;;;;3.86;100.00;100777.03;5138964;27;20072;-92
2022/09/30 05:27:21;;;;;;;23.90;15.18;;;;;;;3.88;100.00;100776.84;5139299;27;20029;-92
2022/09/30 05:29:54;;;;;;;26.88;15.63;;;;;;;3.89;100.00;100781.22;5138784;27;20026;-93
2022/09/30 05:32:37;;;;;;;24.90;14.95;;;;;;;3.89;100.00;100778.53;5139299;27;20039;-92
2022/09/30 05:35:06;;;;;;;24.23;14.65;;;;;;;3.81;100.00;100768.69;5109699;27;20069;-92
2022/09/30 05:37:33;;;;;;;25.05;15.63;;;;;;;3.83;100.00;100781.94;5138574;27;20061;-91
2022/09/30 05:40:01;;;;;;;21.63;14.50;;;;;;;3.82;100.00;100782.94;5138855;27;20023;-88
2022/09/30 05:42:27;;;;;;;25.15;15.02;;;;;;;3.83;100.00;100787.28;5156649;27;20027;-88
2022/09/30 05:44:52;;;;;;;20.80;14.37;;;;;;;3.85;100.00;100794.16;5138305;27;20496;-88
2022/09/30 05:47:21;;;;;;;30.42;16.13;;;;;;;3.90;100.00;100803.53;5120835;27;20038;-89
2022/09/30 05:49:46;;;;;;;26.13;16.40;;;;;;;3.93;100.00;100811.25;5156762;27;20059;-89
2022/09/30 05:52:13;;;;;;;25.73;16.08;;;;;;;3.99;100.00;100816.75;5156922;27;20045;-88
2022/09/30 05:54:39;;;;;;;27.70;16.40;;;;;;;4.01;100.00;100816.59;5137703;27;20066;-90
2022/09/30 05:57:08;;;;;;;25.15;16.23;;;;;;;4.04;100.00;100824.28;5120856;27;20065;-89
2022/09/30 05:59:33;;;;;;;26.17;16.40;;;;;;;4.05;100.00;100817.94;5138003;27;20058;-88
2022/09/30 06:01:59;;;;;;;26.33;16.87;;;;;;;4.04;100.00;100822.47;5137146;27;20081;-88
2022/09/30 06:04:24;;;;;;;26.50;16.65;;;;;;;4.08;100.00;100828.31;5137835;27;20035;-88
2022/09/30 06:06:50;;;;;;;27.33;16.60;;;;;;;4.13;100.00;100835.84;5156621;27;20041;-88
2022/09/30 06:09:16;;;;;;;25.87;16.17;;;;;;;4.15;100.00;100832.00;5138524;27;20022;-88
2022/09/30 06:11:46;;;;;;;29.15;16.67;;;;;;;4.18;100.00;100838.88;5138027;27;20034;-88
2022/09/30 06:14:12;;;;;;;25.40;15.87;;;;;;;4.19;100.00;100833.31;5137457;27;20434;-88
2022/09/30 06:16:43;;;;;;;29.48;16.80;;;;;;;4.25;100.00;100842.50;5137048;27;20018;-88
2022/09/30 06:19:16;;;;;;;30.55;16.67;;;;;;;4.28;100.00;100844.00;5137375;27;20028;-89
2022/09/30 06:21:42;;;;;;;27.85;17.10;;;;;;;4.31;100.00;100838.28;5119981;27;20031;-88
2022/09/30 06:24:11;;;;;;;27.20;16.42;;;;;;;4.36;100.00;100836.75;5137375;27;20481;-87
2022/09/30 06:26:41;;;;;;;29.23;17.23;;;;;;;4.42;100.00;100853.22;5137749;27;20027;-89
2022/09/30 06:29:07;;;;;;;25.83;17.73;;;;;;;4.41;100.00;100852.34;5120276;27;20031;-88
2022/09/30 06:31:32;;;;;;;29.17;17.15;;;;;;;4.46;100.00;100855.38;5136953;27;20034;-87
2022/09/30 06:34:00;;;;;;;27.92;17.88;;;;;;;4.51;100.00;100849.47;5138156;27;20035;-88
2022/09/30 06:36:27;;;;;;;26.50;17.60;;;;;;;4.53;100.00;100855.47;5137107;27;20023;-89
2022/09/30 06:38:54;;;;;;;33.73;16.63;;;;;;;4.54;100.00;100846.41;5137249;27;20027;-89
2022/09/30 06:41:26;;;;;;;30.20;17.13;;;;;;;4.59;100.00;100843.19;5155698;27;20018;-89
2022/09/30 06:43:52;;;;;;;25.60;17.48;;;;;;;4.64;100.00;100846.22;5137485;27;20036;-88
2022/09/30 06:46:18;;;;;;;25.85;16.73;;;;;;;4.69;100.00;100831.22;5136474;27;20037;-88
2022/09/30 06:48:46;;;;;;;31.60;18.77;;;;;;;4.77;100.00;100837.53;5137628;27;20465;-89
2022/09/30 06:51:12;;;;;;;29.97;18.40;;;;;;;4.86;100.00;100844.56;5137047;27;20038;-89
2022/09/30 06:53:42;;;;;;;35.33;19.33;;;;;;;4.90;100.00;100844.03;5136044;27;20382;-89
2022/09/30 06:56:10;;;;;;;37.55;20.85;;;;;;;4.97;100.00;100846.81;5136598;27;20058;-89
2022/09/30 06:58:39;;;;;;;35.08;20.75;;;;;;;5.07;100.00;100841.22;5136961;27;20026;-89
2022/09/30 07:01:05;;;;;;;36.45;21.67;;;;;;;5.12;100.00;100844.19;5136967;27;20051;-89
2022/09/30 07:03:34;;;;;;;37.38;21.30;;;;;;;5.20;100.00;100846.84;5136577;27;20034;-89
2022/09/30 07:06:04;;;;;;;36.55;21.77;;;;;;;5.31;100.00;100844.75;5137623;27;20025;-89
2022/09/30 07:08:32;;;;;;;37.65;21.05;;;;;;;5.35;100.00;100844.19;5136779;27;20038;-89
2022/09/30 07:10:59;;;;;;;46.17;22.75;;;;;;;5.43;100.00;100849.53;5137455;27;20447;-89
2022/09/30 07:13:24;;;;;;;43.20;23.17;;;;;;;5.50;100.00;100848.78;5136517;27;20475;-89
2022/09/30 07:15:53;;;;;;;41.67;21.92;;;;;;;5.61;100.00;100853.75;5136994;27;20038;-89
2022/09/30 07:18:20;;;;;;;40.67;22.70;;;;;;;5.69;100.00;100836.66;5120286;27;20066;-89
2022/09/30 07:20:53;;;;;;;45.13;24.20;;;;;;;5.76;100.00;100835.75;5137126;27;20033;-88
2022/09/30 07:23:25;;;;;;;48.08;24.92;;;;;;;5.87;100.00;100845.22;5137552;27;20019;-89
2022/09/30 07:25:56;;;;;;;45.60;25.85;;;;;;;6.04;100.00;100840.53;5137526;27;20063;-88
2022/09/30 07:28:32;;;;;;;47.45;27.50;;;;;;;6.13;100.00;100834.03;5136931;27;20037;-89
2022/09/30 07:30:59;;;;;;;47.50;26.87;;;;;;;6.26;100.00;100840.59;5137129;27;20473;-89
2022/09/30 07:33:30;;;;;;;43.42;25.48;;;;;;;6.39;100.00;100864.19;5136843;27;20027;-89
2022/09/30 07:35:57;;;;;;;48.90;27.38;;;;;;;6.49;100.00;100865.56;5136262;27;20031;-88
2022/09/30 07:38:28;;;;;;;44.67;25.75;;;;;;;6.57;100.00;100859.25;5136498;27;20049;-88
2022/09/30 07:40:59;;;;;;;42.22;23.52;;;;;;;6.66;100.00;100858.13;5136216;27;20386;-87
2022/09/30 07:43:33;;;;;;;35.47;22.47;;;;;;;6.72;100.00;100858.38;5155018;27;20034;-87
2022/09/30 07:46:24;;;;;;;37.97;22.15;;;;;;;6.78;100.00;100863.03;5121418;27;20119;-87
2022/09/30 07:48:53;;;;;;;33.88;20.70;;;;;;;6.86;100.00;100862.91;5136844;27;20408;-87
2022/09/30 07:51:28;;;;;;;34.00;21.10;;;;;;;6.90;100.00;100852.56;5136245;27;20042;-89
2022/09/30 07:54:07;;;;;;;36.05;21.65;;;;;;;6.97;100.00;100858.88;5136347;27;20023;-89
2022/09/30 07:56:37;;;;;;;35.33;21.27;;;;;;;7.03;100.00;100850.84;5136401;27;20113;-88
2022/09/30 07:59:05;;;;;;;37.15;21.77;;;;;;;7.13;100.00;100855.06;5136715;27;20079;-88
2022/09/30 08:01:34;;;;;;;34.47;21.27;;;;;;;7.17;100.00;100859.88;5154412;27;20070;-89
2022/09/30 08:04:02;;;;;;;37.55;20.40;;;;;;;7.24;100.00;100864.53;5135794;27;20059;-88
2022/09/30 08:06:29;;;;;;;34.90;20.17;;;;;;;7.30;100.00;100859.19;5139092;27;20023;-88
2022/09/30 08:08:59;;;;;;;33.30;20.70;;;;;;;7.37;100.00;100852.00;5140241;27;20038;-88
2022/09/30 08:11:27;;;;;;;34.72;21.42;;;;;;;7.48;100.00;100853.31;5158398;27;20089;-89
2022/09/30 08:13:56;;;;;;;36.05;22.25;;;;;;;7.55;100.00;100846.13;5140098;27;20478;-88
2022/09/30 08:16:27;;;;;;;34.63;21.98;;;;;;;7.66;100.00;100855.56;5139978;27;20029;-88
2022/09/30 08:18:58;;;;;;;36.30;23.27;;;;;;;7.73;100.00;100851.03;5140358;27;20382;-88
2022/09/30 08:21:27;;;;;;;37.93;23.57;;;;;;;7.83;100.00;100863.38;5139920;27;20023;-89
2022/09/30 08:23:58;;;;;;;37.45;23.20;;;;;;;7.85;100.00;100858.59;5139754;27;20109;-89
2022/09/30 08:26:26;;;;;;;35.97;22.23;;;;;;;7.95;100.00;100867.19;5140065;27;20030;-89
2022/09/30 08:28:53;;;;;;;38.83;22.05;;;;;;;8.03;100.00;100866.19;5140173;27;20026;-89
2022/09/30 08:31:22;;;;;;;35.50;21.45;;;;;;;8.08;100.00;100852.94;5139802;27;20362;-88
2022/09/30 08:33:49;;;;;;;41.40;22.70;;;;;;;8.19;100.00;100859.63;5139359;27;20030;-89
2022/09/30 08:36:19;;;;;;;37.45;21.98;;;;;;;8.26;100.00;100861.34;5139324;27;20496;-89
2022/09/30 08:38:45;;;;;;;35.72;21.80;;;;;;;8.37;100.00;100853.69;5139271;27;20513;-89
2022/09/30 08:41:52;;;;;;;37.10;20.97;;;;;;;8.52;100.00;100857.13;5139500;27;20121;-89
2022/09/30 08:44:39;;;;;;;35.67;22.75;;;;;;;8.69;100.00;100851.38;5140302;27;20026;-89
2022/09/30 08:47:16;;;;;;;38.38;21.90;;;;;;;8.82;100.00;100851.41;5139782;27;20027;-89
2022/09/30 08:49:53;;;;;;;36.05;21.35;;;;;;;8.99;100.00;100856.44;5139709;27;20133;-88
2022/09/30 08:52:28;;;;;;;32.90;20.58;;;;;;;9.09;100.00;100854.19;5139027;27;20106;-89
2022/09/30 08:54:55;;;;;;;32.95;19.92;;;;;;;9.22;100.00;100864.19;5157753;27;20050;-89
2022/09/30 08:57:22;;;;;;;29.63;18.75;;;;;;;9.39;100.00;100870.03;5139020;27;20351;-89
2022/09/30 08:59:53;;;;;;;27.63;19.60;;;;;;;9.54;100.00;100865.28;5139265;27;20062;-89
2022/09/30 09:02:48;;;;;;;25.60;17.33;;;;;;;9.66;100.00;100865.47;5135324;27;20061;-89
2022/09/30 09:05:38;;;;;;;30.38;17.67;;;;;;;9.79;100.00;100864.66;5121624;27;20038;-89
2022/09/30 09:08:10;;;;;;;28.00;17.40;;;;;;;9.93;100.00;100862.75;5136903;27;20027;-89
2022/09/30 09:10:43;;;;;;;24.77;15.60;;;;;;;10.06;100.00;100842.91;5135630;27;20037;-88
2022/09/30 09:13:33;;;;;;;27.65;16.83;;;;;;;10.17;100.00;100839.53;5135510;27;20027;-89
2022/09/30 09:16:05;;;;;;;20.75;15.38;;;;;;;10.30;100.00;100844.09;5136270;27;20031;-89
2022/09/30 09:18:32;;;;;;;21.40;14.95;;;;;;;10.42;100.00;100857.84;5135494;27;20045;-89
2022/09/30 09:21:20;;;;;;;20.93;14.97;;;;;;;10.49;100.00;100858.66;5135375;27;20038;-89
2022/09/30 09:23:52;;;;;;;20.33;14.93;;;;;;;10.64;100.00;100858.41;5134883;27;20055;-89
2022/09/30 09:26:18;;;;;;;18.48;13.20;;;;;;;10.79;100.00;100852.69;5136501;27;20053;-89
2022/09/30 09:28:52;;;;;;;18.27;13.23;;;;;;;10.93;100.00;100862.44;5135727;27;20031;-89
2022/09/30 09:31:21;;;;;;;18.40;12.95;;;;;;;11.01;100.00;100855.91;5134736;27;20384;-88
2022/09/30 09:33:47;;;;;;;17.02;12.15;;;;;;;11.10;100.00;100864.63;5135588;27;20035;-89
2022/09/30 09:36:22;;;;;;;17.77;12.63;;;;;;;11.23;100.00;100869.97;5117868;27;20386;-89
2022/09/30 09:39:25;;;;;;;21.27;12.13;;;;;;;11.33;100.00;100875.75;5135373;27;20080;-89
2022/09/30 09:42:11;;;;;;;16.52;11.80;;;;;;;11.47;100.00;100867.50;5135753;27;20473;-89
2022/09/30 09:45:01;;;;;;;17.17;10.98;;;;;;;11.58;100.00;100859.47;5135064;27;20031;-89
2022/09/30 09:47:27;;;;;;;18.17;10.97;;;;;;;11.67;100.00;100856.47;5134689;27;20030;-88
2022/09/30 09:49:57;;;;;;;14.82;10.77;;;;;;;11.74;99.87;100859.97;5134386;27;20030;-89
2022/09/30 09:52:44;;;;;;;17.35;10.82;;;;;;;11.89;99.39;100857.72;5134868;27;20096;-88
2022/09/30 09:55:18;;;;;;;12.95;9.85;;;;;;;12.02;97.97;100855.97;5117621;27;20031;-89
2022/09/30 09:58:13;;;;;;;12.82;9.90;;;;;;;12.17;97.21;100845.56;5135428;27;20459;-89
2022/09/30 10:03:38;;;;;;;12.30;8.20;;;;;;;12.41;95.34;100854.69;5135007;27;20050;-89
2022/09/30 10:06:13;;;;;;;11.23;8.52;;;;;;;12.56;93.15;100856.19;5133280;27;20042;-88
2022/09/30 10:08:52;;;;;;;11.48;8.13;;;;;;;12.69;92.90;100845.13;5134740;27;20031;-89
2022/09/30 10:11:23;;;;;;;11.60;7.97;;;;;;;12.80;90.96;100849.81;5134285;27;20019;-89
2022/09/30 10:13:51;;;;;;;12.30;8.13;;;;;;;12.97;91.62;100838.28;5133950;27;20019;-89
2022/09/30 10:16:36;;;;;;;11.77;8.05;;;;;;;13.21;91.84;100846.50;5134839;27;20031;-89
2022/09/30 10:19:25;;;;;;;10.77;8.25;;;;;;;13.37;90.72;100845.06;5133798;27;20119;-89
2022/09/30 10:22:11;;;;;;;9.60;7.47;;;;;;;13.48;87.99;100855.97;5134380;27;20121;-89
2022/09/30 10:24:38;;;;;;;13.77;6.88;;;;;;;13.58;83.65;100866.31;5135179;27;20023;-89
2022/09/30 10:27:24;;;;;;;10.73;6.40;;;;;;;13.60;81.72;100858.72;5134194;27;20378;-89
2022/09/30 10:29:49;;;;;;;7.82;6.63;;;;;;;13.75;81.17;100849.25;5133540;27;20379;-89
2022/09/30 10:32:15;;;;;;;12.63;6.50;;;;;;;13.88;80.61;100854.47;5134030;27;20037;-87
2022/09/30 10:34:43;;;;;;;7.70;6.53;;;;;;;14.11;80.79;100848.16;5134111;27;20284;-89
2022/09/30 10:37:12;;;;;;;7.55;5.97;;;;;;;14.15;79.39;100854.78;5133673;27;20015;-89
2022/09/30 10:39:43;;;;;;;8.52;5.35;;;;;;;14.32;78.35;100857.63;5133513;27;20064;-89
2022/09/30 10:42:20;;;;;;;6.57;5.43;;;;;;;14.55;77.42;100851.25;5134068;27;20375;-89
2022/09/30 10:44:47;;;;;;;8.43;5.50;;;;;;;14.82;75.94;100847.19;5133414;27;20023;-89
2022/09/30 10:47:16;;;;;;;7.88;5.88;;;;;;;15.11;74.70;100852.63;5133570;27;20023;-89
2022/09/30 10:49:50;;;;;;;9.05;5.32;;;;;;;15.55;74.33;100847.38;5134274;27;20102;-89
2022/09/30 10:52:22;;;;;;;6.18;4.13;;;;;;;15.92;71.01;100852.34;5133643;27;20050;-89
2022/09/30 10:54:51;;;;;;;4.90;4.17;;;;;;;16.27;69.66;100854.75;5133910;27;20023;-90
2022/09/30 10:57:28;;;;;;;5.78;4.13;;;;;;;16.10;67.36;100853.97;5133450;27;20027;-89
2022/09/30 11:00:47;;;;;;;4.43;3.42;;;;;;;15.82;67.27;100861.22;5133512;27;20117;-89
2022/09/30 11:03:22;;;;;;;3.58;3.28;;;;;;;17.06;65.50;100838.16;5134820;27;20356;-89
2022/09/30 11:05:54;;;;;;;6.65;3.53;;;;;;;18.56;59.84;100841.66;5116599;27;20468;-89
2022/09/30 11:08:43;;;;;;;3.43;3.10;;;;;;;21.36;54.75;100838.97;5116871;27;20404;-89
2022/09/30 11:11:09;;;;;;;5.38;2.42;;;;;;;23.38;45.93;100832.69;5117062;28;20531;-85
2022/09/30 11:14:00;;;;;;;4.93;2.88;;;;;;;24.73;43.68;100836.53;5115786;28;20145;-85
2022/09/30 11:16:36;;;;;;;3.40;2.80;;;;;;;26.11;40.41;100842.63;5116199;28;20464;-85
2022/09/30 11:19:27;;;;;;;3.42;3.00;;;;;;;25.89;36.87;100824.81;5116041;28;20027;-85
2022/09/30 11:21:59;;;;;;;3.42;3.13;;;;;;;25.91;37.46;100839.25;5115239;28;20028;-85
2022/09/30 11:24:38;;;;;;;5.20;2.97;;;;;;;25.66;36.18;100829.59;5134266;28;20035;-86
2022/09/30 11:27:26;;;;;;;3.80;3.08;;;;;;;26.58;34.91;100831.78;5116705;28;20118;-85
2022/09/30 11:30:16;;;;;;;4.83;3.03;;;;;;;27.98;35.09;100837.31;5116098;28;20028;-86
2022/09/30 11:32:59;;;;;;;3.28;2.85;;;;;;;28.58;32.52;100815.81;5116479;28;20438;-83
2022/09/30 11:35:40;;;;;;;3.85;3.42;;;;;;;27.55;33.65;100818.72;5116549;28;20042;-83
2022/09/30 11:38:05;;;;;;;3.05;2.83;;;;;;;27.18;32.98;100810.75;5116657;28;20031;-84
2022/09/30 11:40:51;;;;;;;3.27;2.97;;;;;;;27.26;33.70;100812.69;5117223;27;20114;-84
2022/09/30 11:43:44;;;;;;;4.03;2.88;;;;;;;25.25;35.69;100811.22;5120350;27;20490;-83
2022/09/30 11:46:46;;;;;;;8.57;2.85;;;;;;;22.76;40.93;100805.97;5120524;27;20114;-84
2022/09/30 11:49:48;;;;;;;3.27;2.93;;;;;;;23.61;40.11;100810.72;5138501;27;20091;-82